sensor_id;sensor_type;location;lat;lon;timestamp;temperature;humidity
15103;DHT22;7652;53.584;9.998;2022-10-16T00:02:23;15.60;99.90
15103;DHT22;7652;53.584;9.998;2022-10-16T00:05:27;15.60;99.90
15103;DHT22;7652;53.584;9.998;2022-10-16T00:08:30;15.60;99.90
15103;DHT22;7652;53.584;9.998;2022-10-16T00:11:35;15.60;99.90
15103;DHT22;7652;53.584;9.998;2022-10-16T00:14:40;15.60;99.90
15103;DHT22;7652;53.584;9.998;2022-10-16T00:17:45;15.60;99.90
15103;DHT22;7652;53.584;9.998;2022-10-16T00:20:48;15.60;99.90
15103;DHT22;7652;53.584;9.998;2022-10-16T00:23:52;15.50;99.90
15103;DHT22;7652;53.584;9.998;2022-10-16T00:26:55;15.60;99.90
15103;DHT22;7652;53.584;9.998;2022-10-16T00:29:59;15.60;99.90
15103;DHT22;7652;53.584;9.998;2022-10-16T00:33:03;15.50;99.90
15103;DHT22;7652;53.584;9.998;2022-10-16T00:36:07;15.50;99.90
15103;DHT22;7652;53.584;9.998;2022-10-16T00:39:10;15.60;99.90
15103;DHT22;7652;53.584;9.998;2022-10-16T00:42:15;15.60;99.90
15103;DHT22;7652;53.584;9.998;2022-10-16T00:45:20;15.60;99.90
15103;DHT22;7652;53.584;9.998;2022-10-16T00:48:23;15.60;99.90
15103;DHT22;7652;53.584;9.998;2022-10-16T00:51:31;15.60;99.90
15103;DHT22;7652;53.584;9.998;2022-10-16T00:54:35;15.70;99.90
15103;DHT22;7652;53.584;9.998;2022-10-16T00:57:39;15.70;99.90
15103;DHT22;7652;53.584;9.998;2022-10-16T01:00:43;15.70;99.90
15103;DHT22;7652;53.584;9.998;2022-10-16T01:03:46;15.60;99.90
15103;DHT22;7652;53.584;9.998;2022-10-16T01:06:57;15.60;99.90
15103;DHT22;7652;53.584;9.998;2022-10-16T01:10:16;15.70;99.90
15103;DHT22;7652;53.584;9.998;2022-10-16T01:13:23;15.60;99.90
15103;DHT22;7652;53.584;9.998;2022-10-16T01:16:34;15.60;99.90
15103;DHT22;7652;53.584;9.998;2022-10-16T01:19:50;15.60;99.90
15103;DHT22;7652;53.584;9.998;2022-10-16T01:23:03;15.60;99.90
15103;DHT22;7652;53.584;9.998;2022-10-16T01:26:29;15.60;99.90
15103;DHT22;7652;53.584;9.998;2022-10-16T01:29:39;15.60;99.90
15103;DHT22;7652;53.584;9.998;2022-10-16T01:32:48;15.60;99.90
15103;DHT22;7652;53.584;9.998;2022-10-16T01:35:55;15.60;99.90
15103;DHT22;7652;53.584;9.998;2022-10-16T01:39:01;15.50;99.90
15103;DHT22;7652;53.584;9.998;2022-10-16T01:42:08;15.40;99.90
15103;DHT22;7652;53.584;9.998;2022-10-16T01:45:15;15.40;99.90
15103;DHT22;7652;53.584;9.998;2022-10-16T01:48:21;15.40;99.90
15103;DHT22;7652;53.584;9.998;2022-10-16T01:51:26;15.40;99.90
15103;DHT22;7652;53.584;9.998;2022-10-16T01:54:31;15.30;99.90
15103;DHT22;7652;53.584;9.998;2022-10-16T01:57:37;15.20;99.90
15103;DHT22;7652;53.584;9.998;2022-10-16T02:00:44;15.30;99.90
15103;DHT22;7652;53.584;9.998;2022-10-16T02:03:50;15.20;99.90
15103;DHT22;7652;53.584;9.998;2022-10-16T02:06:55;15.20;99.90
15103;DHT22;7652;53.584;9.998;2022-10-16T02:09:59;15.20;99.90
15103;DHT22;7652;53.584;9.998;2022-10-16T02:13:06;15.20;99.90
15103;DHT22;7652;53.584;9.998;2022-10-16T02:16:11;15.20;99.90
15103;DHT22;7652;53.584;9.998;2022-10-16T02:19:15;15.10;99.90
15103;DHT22;7652;53.584;9.998;2022-10-16T02:22:24;15.10;99.90
15103;DHT22;7652;53.584;9.998;2022-10-16T02:25:31;15.10;99.90
15103;DHT22;7652;53.584;9.998;2022-10-16T02:28:38;15.10;99.90
15103;DHT22;7652;53.584;9.998;2022-10-16T02:31:48;15.00;99.90
15103;DHT22;7652;53.584;9.998;2022-10-16T02:34:53;15.10;99.90
15103;DHT22;7652;53.584;9.998;2022-10-16T02:37:57;15.00;99.90
15103;DHT22;7652;53.584;9.998;2022-10-16T02:41:01;15.00;99.90
15103;DHT22;7652;53.584;9.998;2022-10-16T02:44:04;14.90;99.90
15103;DHT22;7652;53.584;9.998;2022-10-16T02:47:08;14.90;99.90
15103;DHT22;7652;53.584;9.998;2022-10-16T02:50:17;14.90;99.90
15103;DHT22;7652;53.584;9.998;2022-10-16T02:53:20;14.90;99.90
15103;DHT22;7652;53.584;9.998;2022-10-16T02:56:23;14.80;99.90
15103;DHT22;7652;53.584;9.998;2022-10-16T02:59:26;14.80;99.90
15103;DHT22;7652;53.584;9.998;2022-10-16T03:02:30;14.80;99.90
15103;DHT22;7652;53.584;9.998;2022-10-16T03:05:33;14.80;99.90
15103;DHT22;7652;53.584;9.998;2022-10-16T03:08:36;14.70;99.90
15103;DHT22;7652;53.584;9.998;2022-10-16T03:11:39;14.70;99.90
15103;DHT22;7652;53.584;9.998;2022-10-16T03:14:42;14.70;99.90
15103;DHT22;7652;53.584;9.998;2022-10-16T03:17:47;14.70;99.90
15103;DHT22;7652;53.584;9.998;2022-10-16T03:20:50;14.50;99.90
15103;DHT22;7652;53.584;9.998;2022-10-16T03:23:53;14.50;99.90
15103;DHT22;7652;53.584;9.998;2022-10-16T03:26:56;14.60;99.90
15103;DHT22;7652;53.584;9.998;2022-10-16T03:29:59;14.60;99.90
15103;DHT22;7652;53.584;9.998;2022-10-16T03:33:03;14.60;99.90
15103;DHT22;7652;53.584;9.998;2022-10-16T03:36:06;14.60;99.90
15103;DHT22;7652;53.584;9.998;2022-10-16T03:39:09;14.50;99.90
15103;DHT22;7652;53.584;9.998;2022-10-16T03:42:12;14.50;99.90
15103;DHT22;7652;53.584;9.998;2022-10-16T03:45:15;14.50;99.90
15103;DHT22;7652;53.584;9.998;2022-10-16T03:48:19;14.40;99.90
15103;DHT22;7652;53.584;9.998;2022-10-16T03:51:23;14.50;99.90
15103;DHT22;7652;53.584;9.998;2022-10-16T03:54:26;14.40;99.90
15103;DHT22;7652;53.584;9.998;2022-10-16T03:57:28;14.50;99.90
15103;DHT22;7652;53.584;9.998;2022-10-16T04:00:31;14.40;99.90
15103;DHT22;7652;53.584;9.998;2022-10-16T04:03:36;14.40;99.90
15103;DHT22;7652;53.584;9.998;2022-10-16T04:06:39;14.40;99.90
15103;DHT22;7652;53.584;9.998;2022-10-16T04:09:42;14.40;99.90
15103;DHT22;7652;53.584;9.998;2022-10-16T04:12:45;14.40;99.90
15103;DHT22;7652;53.584;9.998;2022-10-16T04:15:48;14.40;99.90
15103;DHT22;7652;53.584;9.998;2022-10-16T04:18:52;14.40;99.90
15103;DHT22;7652;53.584;9.998;2022-10-16T04:21:55;14.40;99.90
15103;DHT22;7652;53.584;9.998;2022-10-16T04:24:58;14.40;99.90
15103;DHT22;7652;53.584;9.998;2022-10-16T04:28:01;14.40;99.90
15103;DHT22;7652;53.584;9.998;2022-10-16T04:31:05;14.40;99.90
15103;DHT22;7652;53.584;9.998;2022-10-16T04:34:09;14.40;99.90
15103;DHT22;7652;53.584;9.998;2022-10-16T04:37:12;14.40;99.90
15103;DHT22;7652;53.584;9.998;2022-10-16T04:40:15;14.40;99.90
15103;DHT22;7652;53.584;9.998;2022-10-16T04:43:19;14.40;99.90
15103;DHT22;7652;53.584;9.998;2022-10-16T04:46:22;14.30;99.90
15103;DHT22;7652;53.584;9.998;2022-10-16T04:49:27;14.30;99.90
15103;DHT22;7652;53.584;9.998;2022-10-16T04:52:30;14.30;99.90
15103;DHT22;7652;53.584;9.998;2022-10-16T04:55:34;14.30;99.90
15103;DHT22;7652;53.584;9.998;2022-10-16T04:58:37;14.40;99.90
15103;DHT22;7652;53.584;9.998;2022-10-16T05:01:40;14.40;99.90
15103;DHT22;7652;53.584;9.998;2022-10-16T05:04:44;14.40;99.90
15103;DHT22;7652;53.584;9.998;2022-10-16T05:07:47;14.30;99.90
15103;DHT22;7652;53.584;9.998;2022-10-16T05:10:51;14.30;99.90
15103;DHT22;7652;53.584;9.998;2022-10-16T05:13:54;14.30;99.90
15103;DHT22;7652;53.584;9.998;2022-10-16T05:16:57;14.30;99.90
15103;DHT22;7652;53.584;9.998;2022-10-16T05:20:02;14.40;99.90
15103;DHT22;7652;53.584;9.998;2022-10-16T05:23:05;14.30;99.90
15103;DHT22;7652;53.584;9.998;2022-10-16T05:26:08;14.40;99.90
15103;DHT22;7652;53.584;9.998;2022-10-16T05:29:11;14.30;99.90
15103;DHT22;7652;53.584;9.998;2022-10-16T05:32:15;14.30;99.90
15103;DHT22;7652;53.584;9.998;2022-10-16T05:35:20;14.30;99.90
15103;DHT22;7652;53.584;9.998;2022-10-16T05:38:23;14.30;99.90
15103;DHT22;7652;53.584;9.998;2022-10-16T05:41:26;14.40;99.90
15103;DHT22;7652;53.584;9.998;2022-10-16T05:44:29;14.40;99.90
15103;DHT22;7652;53.584;9.998;2022-10-16T05:47:32;14.40;99.90
15103;DHT22;7652;53.584;9.998;2022-10-16T05:50:37;14.40;99.90
15103;DHT22;7652;53.584;9.998;2022-10-16T05:53:40;14.40;99.90
15103;DHT22;7652;53.584;9.998;2022-10-16T05:56:44;14.40;99.90
15103;DHT22;7652;53.584;9.998;2022-10-16T05:59:47;14.40;99.90
15103;DHT22;7652;53.584;9.998;2022-10-16T06:02:50;14.50;99.90
15103;DHT22;7652;53.584;9.998;2022-10-16T06:05:55;14.50;99.90
15103;DHT22;7652;53.584;9.998;2022-10-16T06:08:58;14.60;99.90
15103;DHT22;7652;53.584;9.998;2022-10-16T06:12:01;14.70;99.90
15103;DHT22;7652;53.584;9.998;2022-10-16T06:15:05;14.70;99.90
15103;DHT22;7652;53.584;9.998;2022-10-16T06:18:08;14.70;99.90
15103;DHT22;7652;53.584;9.998;2022-10-16T06:21:16;14.80;99.90
15103;DHT22;7652;53.584;9.998;2022-10-16T06:24:20;14.80;99.90
15103;DHT22;7652;53.584;9.998;2022-10-16T06:27:23;14.80;99.90
15103;DHT22;7652;53.584;9.998;2022-10-16T06:30:26;14.70;99.90
15103;DHT22;7652;53.584;9.998;2022-10-16T06:33:29;14.70;99.90
15103;DHT22;7652;53.584;9.998;2022-10-16T06:36:34;14.70;99.90
15103;DHT22;7652;53.584;9.998;2022-10-16T06:39:37;14.70;99.90
15103;DHT22;7652;53.584;9.998;2022-10-16T06:42:40;14.70;99.90
15103;DHT22;7652;53.584;9.998;2022-10-16T06:45:43;14.70;99.90
15103;DHT22;7652;53.584;9.998;2022-10-16T06:48:46;14.70;99.90
15103;DHT22;7652;53.584;9.998;2022-10-16T06:51:51;14.80;99.90
15103;DHT22;7652;53.584;9.998;2022-10-16T06:54:54;14.80;99.90
15103;DHT22;7652;53.584;9.998;2022-10-16T06:57:56;14.80;99.90
15103;DHT22;7652;53.584;9.998;2022-10-16T07:00:59;14.70;99.90
15103;DHT22;7652;53.584;9.998;2022-10-16T07:04:02;14.80;99.90
15103;DHT22;7652;53.584;9.998;2022-10-16T07:07:07;14.90;99.90
15103;DHT22;7652;53.584;9.998;2022-10-16T07:10:10;15.00;99.90
15103;DHT22;7652;53.584;9.998;2022-10-16T07:13:13;15.00;99.90
15103;DHT22;7652;53.584;9.998;2022-10-16T07:16:17;15.10;99.90
15103;DHT22;7652;53.584;9.998;2022-10-16T07:19:21;15.20;99.90
15103;DHT22;7652;53.584;9.998;2022-10-16T07:22:25;15.20;99.90
15103;DHT22;7652;53.584;9.998;2022-10-16T07:25:29;15.40;99.90
15103;DHT22;7652;53.584;9.998;2022-10-16T07:28:32;15.40;99.90
15103;DHT22;7652;53.584;9.998;2022-10-16T07:31:36;15.40;99.90
15103;DHT22;7652;53.584;9.998;2022-10-16T07:34:39;15.40;99.90
15103;DHT22;7652;53.584;9.998;2022-10-16T07:37:45;15.40;99.90
15103;DHT22;7652;53.584;9.998;2022-10-16T07:40:55;15.40;99.90
15103;DHT22;7652;53.584;9.998;2022-10-16T07:43:59;15.40;99.90
15103;DHT22;7652;53.584;9.998;2022-10-16T07:47:02;15.40;99.90
15103;DHT22;7652;53.584;9.998;2022-10-16T07:50:05;15.50;99.90
15103;DHT22;7652;53.584;9.998;2022-10-16T07:53:10;15.70;99.90
15103;DHT22;7652;53.584;9.998;2022-10-16T07:56:15;15.70;99.90
15103;DHT22;7652;53.584;9.998;2022-10-16T07:59:18;15.90;99.90
15103;DHT22;7652;53.584;9.998;2022-10-16T08:02:21;15.90;99.90
15103;DHT22;7652;53.584;9.998;2022-10-16T08:05:24;15.90;99.90
15103;DHT22;7652;53.584;9.998;2022-10-16T08:08:29;15.90;99.90
15103;DHT22;7652;53.584;9.998;2022-10-16T08:11:32;15.90;99.90
15103;DHT22;7652;53.584;9.998;2022-10-16T08:14:35;15.80;99.90
15103;DHT22;7652;53.584;9.998;2022-10-16T08:17:38;15.80;99.90
15103;DHT22;7652;53.584;9.998;2022-10-16T08:20:42;15.80;99.90
15103;DHT22;7652;53.584;9.998;2022-10-16T08:23:47;15.80;99.90
15103;DHT22;7652;53.584;9.998;2022-10-16T08:26:57;15.80;99.90
15103;DHT22;7652;53.584;9.998;2022-10-16T08:30:00;15.90;99.90
15103;DHT22;7652;53.584;9.998;2022-10-16T08:33:04;16.00;99.90
15103;DHT22;7652;53.584;9.998;2022-10-16T08:36:09;16.10;99.90
15103;DHT22;7652;53.584;9.998;2022-10-16T08:39:13;16.20;99.90
15103;DHT22;7652;53.584;9.998;2022-10-16T08:42:29;16.30;99.90
15103;DHT22;7652;53.584;9.998;2022-10-16T08:45:46;16.40;99.90
15103;DHT22;7652;53.584;9.998;2022-10-16T08:48:54;16.40;99.90
15103;DHT22;7652;53.584;9.998;2022-10-16T08:51:59;16.50;99.90
15103;DHT22;7652;53.584;9.998;2022-10-16T08:55:05;16.50;99.90
15103;DHT22;7652;53.584;9.998;2022-10-16T08:58:12;16.50;99.90
15103;DHT22;7652;53.584;9.998;2022-10-16T09:01:17;16.50;99.90
15103;DHT22;7652;53.584;9.998;2022-10-16T09:08:05;16.60;99.90
15103;DHT22;7652;53.584;9.998;2022-10-16T09:11:20;16.70;99.90
15103;DHT22;7652;53.584;9.998;2022-10-16T09:14:44;16.80;99.90
15103;DHT22;7652;53.584;9.998;2022-10-16T09:17:54;16.80;99.90
15103;DHT22;7652;53.584;9.998;2022-10-16T09:21:01;16.90;99.90
15103;DHT22;7652;53.584;9.998;2022-10-16T09:24:11;16.90;99.90
15103;DHT22;7652;53.584;9.998;2022-10-16T09:27:17;17.10;99.90
15103;DHT22;7652;53.584;9.998;2022-10-16T09:30:21;17.20;99.90
15103;DHT22;7652;53.584;9.998;2022-10-16T09:33:28;17.20;99.90
15103;DHT22;7652;53.584;9.998;2022-10-16T09:36:36;17.40;99.90
15103;DHT22;7652;53.584;9.998;2022-10-16T09:39:44;17.50;99.90
15103;DHT22;7652;53.584;9.998;2022-10-16T09:42:56;17.60;99.90
15103;DHT22;7652;53.584;9.998;2022-10-16T09:46:02;17.60;99.90
15103;DHT22;7652;53.584;9.998;2022-10-16T09:49:20;17.70;99.90
15103;DHT22;7652;53.584;9.998;2022-10-16T09:52:24;17.70;99.90
15103;DHT22;7652;53.584;9.998;2022-10-16T09:55:27;17.70;99.90
15103;DHT22;7652;53.584;9.998;2022-10-16T09:58:31;17.70;99.90
15103;DHT22;7652;53.584;9.998;2022-10-16T10:01:37;17.70;99.90
15103;DHT22;7652;53.584;9.998;2022-10-16T10:04:47;17.80;99.90
15103;DHT22;7652;53.584;9.998;2022-10-16T10:07:56;17.90;99.90
15103;DHT22;7652;53.584;9.998;2022-10-16T10:11:00;17.90;99.90
15103;DHT22;7652;53.584;9.998;2022-10-16T10:14:20;17.90;99.90
15103;DHT22;7652;53.584;9.998;2022-10-16T10:17:25;17.90;99.90
15103;DHT22;7652;53.584;9.998;2022-10-16T10:20:30;17.90;99.90
15103;DHT22;7652;53.584;9.998;2022-10-16T10:23:35;17.90;99.90
15103;DHT22;7652;53.584;9.998;2022-10-16T10:26:44;18.00;99.90
15103;DHT22;7652;53.584;9.998;2022-10-16T10:29:56;18.00;99.90
15103;DHT22;7652;53.584;9.998;2022-10-16T10:33:20;18.10;99.90
15103;DHT22;7652;53.584;9.998;2022-10-16T10:36:33;18.20;99.90
15103;DHT22;7652;53.584;9.998;2022-10-16T10:39:42;18.40;99.90
15103;DHT22;7652;53.584;9.998;2022-10-16T10:42:52;18.50;99.90
15103;DHT22;7652;53.584;9.998;2022-10-16T10:46:04;18.60;99.90
15103;DHT22;7652;53.584;9.998;2022-10-16T10:49:20;18.70;99.90
15103;DHT22;7652;53.584;9.998;2022-10-16T10:52:43;18.90;99.90
15103;DHT22;7652;53.584;9.998;2022-10-16T10:55:57;19.10;99.90
15103;DHT22;7652;53.584;9.998;2022-10-16T10:59:28;19.30;99.90
15103;DHT22;7652;53.584;9.998;2022-10-16T11:02:38;19.40;99.90
15103;DHT22;7652;53.584;9.998;2022-10-16T11:05:45;19.40;99.90
15103;DHT22;7652;53.584;9.998;2022-10-16T11:08:55;19.80;99.90
15103;DHT22;7652;53.584;9.998;2022-10-16T11:12:06;20.30;99.90
15103;DHT22;7652;53.584;9.998;2022-10-16T11:15:15;20.90;99.90
15103;DHT22;7652;53.584;9.998;2022-10-16T11:18:23;21.40;99.90
15103;DHT22;7652;53.584;9.998;2022-10-16T11:21:31;21.70;99.90
15103;DHT22;7652;53.584;9.998;2022-10-16T11:24:42;21.80;99.90
15103;DHT22;7652;53.584;9.998;2022-10-16T11:27:52;22.00;99.90
15103;DHT22;7652;53.584;9.998;2022-10-16T11:31:00;22.90;99.90
15103;DHT22;7652;53.584;9.998;2022-10-16T11:34:09;24.10;99.90
15103;DHT22;7652;53.584;9.998;2022-10-16T11:37:19;24.10;99.90
15103;DHT22;7652;53.584;9.998;2022-10-16T11:40:28;23.30;99.90
15103;DHT22;7652;53.584;9.998;2022-10-16T11:43:35;22.80;99.90
15103;DHT22;7652;53.584;9.998;2022-10-16T11:46:43;22.10;99.90
15103;DHT22;7652;53.584;9.998;2022-10-16T11:50:09;21.60;99.90
15103;DHT22;7652;53.584;9.998;2022-10-16T11:53:23;21.00;99.90
15103;DHT22;7652;53.584;9.998;2022-10-16T11:56:28;21.20;99.90
15103;DHT22;7652;53.584;9.998;2022-10-16T11:59:38;21.10;99.90
15103;DHT22;7652;53.584;9.998;2022-10-16T12:02:52;21.40;99.90
15103;DHT22;7652;53.584;9.998;2022-10-16T12:06:11;21.30;99.90
15103;DHT22;7652;53.584;9.998;2022-10-16T12:09:22;21.10;99.90
15103;DHT22;7652;53.584;9.998;2022-10-16T12:12:28;21.70;99.90
15103;DHT22;7652;53.584;9.998;2022-10-16T12:15:39;21.70;99.90
15103;DHT22;7652;53.584;9.998;2022-10-16T12:19:10;21.60;99.90
15103;DHT22;7652;53.584;9.998;2022-10-16T12:22:18;22.60;99.90
15103;DHT22;7652;53.584;9.998;2022-10-16T12:25:24;24.10;99.90
15103;DHT22;7652;53.584;9.998;2022-10-16T12:28:30;25.40;98.70
15103;DHT22;7652;53.584;9.998;2022-10-16T12:31:37;26.60;94.80
15103;DHT22;7652;53.584;9.998;2022-10-16T12:34:59;27.70;90.70
15103;DHT22;7652;53.584;9.998;2022-10-16T12:38:15;28.50;84.10
15103;DHT22;7652;53.584;9.998;2022-10-16T12:41:24;27.90;85.00
15103;DHT22;7652;53.584;9.998;2022-10-16T12:44:32;28.30;83.20
15103;DHT22;7652;53.584;9.998;2022-10-16T12:47:47;28.20;81.40
15103;DHT22;7652;53.584;9.998;2022-10-16T12:50:51;28.40;78.60
15103;DHT22;7652;53.584;9.998;2022-10-16T12:54:03;28.00;78.40
15103;DHT22;7652;53.584;9.998;2022-10-16T12:57:22;28.00;77.90
15103;DHT22;7652;53.584;9.998;2022-10-16T13:00:39;28.30;77.20
15103;DHT22;7652;53.584;9.998;2022-10-16T13:04:16;28.60;78.50
15103;DHT22;7652;53.584;9.998;2022-10-16T13:07:37;29.00;74.80
15103;DHT22;7652;53.584;9.998;2022-10-16T13:10:57;29.40;74.70
15103;DHT22;7652;53.584;9.998;2022-10-16T13:14:27;29.40;72.80
15103;DHT22;7652;53.584;9.998;2022-10-16T13:17:40;29.30;70.30
15103;DHT22;7652;53.584;9.998;2022-10-16T13:20:59;28.60;72.10
15103;DHT22;7652;53.584;9.998;2022-10-16T13:24:13;28.50;72.50
15103;DHT22;7652;53.584;9.998;2022-10-16T13:27:27;28.20;72.70
15103;DHT22;7652;53.584;9.998;2022-10-16T13:30:40;28.10;72.60
15103;DHT22;7652;53.584;9.998;2022-10-16T13:33:47;27.80;73.80
15103;DHT22;7652;53.584;9.998;2022-10-16T13:36:52;27.40;76.50
15103;DHT22;7652;53.584;9.998;2022-10-16T13:40:05;27.00;78.50
15103;DHT22;7652;53.584;9.998;2022-10-16T13:43:11;27.00;80.30
15103;DHT22;7652;53.584;9.998;2022-10-16T13:46:16;26.50;82.70
15103;DHT22;7652;53.584;9.998;2022-10-16T13:49:19;25.40;88.20
15103;DHT22;7652;53.584;9.998;2022-10-16T13:52:22;24.60;91.60
15103;DHT22;7652;53.584;9.998;2022-10-16T13:55:33;24.00;93.50
15103;DHT22;7652;53.584;9.998;2022-10-16T13:58:37;23.10;96.40
15103;DHT22;7652;53.584;9.998;2022-10-16T14:01:42;22.60;98.20
15103;DHT22;7652;53.584;9.998;2022-10-16T14:04:46;22.20;99.30
15103;DHT22;7652;53.584;9.998;2022-10-16T14:07:51;21.90;99.90
15103;DHT22;7652;53.584;9.998;2022-10-16T14:10:58;21.60;99.90
15103;DHT22;7652;53.584;9.998;2022-10-16T14:14:03;21.40;99.90
15103;DHT22;7652;53.584;9.998;2022-10-16T14:17:06;21.40;99.90
15103;DHT22;7652;53.584;9.998;2022-10-16T14:20:14;21.30;99.90
15103;DHT22;7652;53.584;9.998;2022-10-16T14:23:23;21.10;99.90
15103;DHT22;7652;53.584;9.998;2022-10-16T14:26:28;21.10;99.90
15103;DHT22;7652;53.584;9.998;2022-10-16T14:29:32;21.10;99.90
15103;DHT22;7652;53.584;9.998;2022-10-16T14:32:40;20.90;99.90
15103;DHT22;7652;53.584;9.998;2022-10-16T14:35:44;20.70;99.90
15103;DHT22;7652;53.584;9.998;2022-10-16T14:38:56;20.60;99.90
15103;DHT22;7652;53.584;9.998;2022-10-16T14:42:00;20.40;99.90
15103;DHT22;7652;53.584;9.998;2022-10-16T14:45:09;20.40;99.90
15103;DHT22;7652;53.584;9.998;2022-10-16T14:48:17;20.30;99.90
15103;DHT22;7652;53.584;9.998;2022-10-16T14:51:21;20.30;99.90
15103;DHT22;7652;53.584;9.998;2022-10-16T14:54:24;20.10;99.90
15103;DHT22;7652;53.584;9.998;2022-10-16T14:57:28;20.00;99.90
15103;DHT22;7652;53.584;9.998;2022-10-16T15:00:35;19.90;99.90
15103;DHT22;7652;53.584;9.998;2022-10-16T15:03:38;19.80;99.90
15103;DHT22;7652;53.584;9.998;2022-10-16T15:06:42;19.80;99.90
15103;DHT22;7652;53.584;9.998;2022-10-16T15:09:45;19.70;99.90
15103;DHT22;7652;53.584;9.998;2022-10-16T15:12:50;19.70;99.90
15103;DHT22;7652;53.584;9.998;2022-10-16T15:15:55;19.50;99.90
15103;DHT22;7652;53.584;9.998;2022-10-16T15:18:58;19.40;99.90
15103;DHT22;7652;53.584;9.998;2022-10-16T15:22:01;19.30;99.90
15103;DHT22;7652;53.584;9.998;2022-10-16T15:25:10;19.20;99.90
15103;DHT22;7652;53.584;9.998;2022-10-16T15:28:21;19.10;99.90
15103;DHT22;7652;53.584;9.998;2022-10-16T15:31:26;19.00;99.90
15103;DHT22;7652;53.584;9.998;2022-10-16T15:34:29;19.00;99.90
15103;DHT22;7652;53.584;9.998;2022-10-16T15:37:32;18.90;99.90
15103;DHT22;7652;53.584;9.998;2022-10-16T15:40:35;18.90;99.90
15103;DHT22;7652;53.584;9.998;2022-10-16T15:43:39;18.90;99.90
15103;DHT22;7652;53.584;9.998;2022-10-16T15:46:43;18.90;99.90
15103;DHT22;7652;53.584;9.998;2022-10-16T15:49:46;18.80;99.90
15103;DHT22;7652;53.584;9.998;2022-10-16T15:52:49;18.60;99.90
15103;DHT22;7652;53.584;9.998;2022-10-16T15:55:53;18.60;99.90
15103;DHT22;7652;53.584;9.998;2022-10-16T15:58:56;18.50;99.90
15103;DHT22;7652;53.584;9.998;2022-10-16T16:02:01;18.40;99.90
15103;DHT22;7652;53.584;9.998;2022-10-16T16:05:05;18.30;99.90
15103;DHT22;7652;53.584;9.998;2022-10-16T16:08:09;18.30;99.90
15103;DHT22;7652;53.584;9.998;2022-10-16T16:11:13;18.20;99.90
15103;DHT22;7652;53.584;9.998;2022-10-16T16:14:17;18.10;99.90
15103;DHT22;7652;53.584;9.998;2022-10-16T16:17:21;17.90;99.90
15103;DHT22;7652;53.584;9.998;2022-10-16T16:20:25;17.90;99.90
15103;DHT22;7652;53.584;9.998;2022-10-16T16:23:28;17.80;99.90
15103;DHT22;7652;53.584;9.998;2022-10-16T16:26:31;17.70;99.90
15103;DHT22;7652;53.584;9.998;2022-10-16T16:29:37;17.70;99.90
15103;DHT22;7652;53.584;9.998;2022-10-16T16:32:41;17.60;99.90
15103;DHT22;7652;53.584;9.998;2022-10-16T16:35:45;17.50;99.90
15103;DHT22;7652;53.584;9.998;2022-10-16T16:38:48;17.40;99.90
15103;DHT22;7652;53.584;9.998;2022-10-16T16:41:52;17.30;99.90
15103;DHT22;7652;53.584;9.998;2022-10-16T16:44:55;17.30;99.90
15103;DHT22;7652;53.584;9.998;2022-10-16T16:48:00;17.20;99.90
15103;DHT22;7652;53.584;9.998;2022-10-16T16:51:03;17.10;99.90
15103;DHT22;7652;53.584;9.998;2022-10-16T16:54:07;17.10;99.90
15103;DHT22;7652;53.584;9.998;2022-10-16T16:57:10;17.00;99.90
15103;DHT22;7652;53.584;9.998;2022-10-16T17:00:13;16.90;99.90
15103;DHT22;7652;53.584;9.998;2022-10-16T17:03:18;16.80;99.90
15103;DHT22;7652;53.584;9.998;2022-10-16T17:06:23;16.70;99.90
15103;DHT22;7652;53.584;9.998;2022-10-16T17:09:26;16.70;99.90
15103;DHT22;7652;53.584;9.998;2022-10-16T17:12:29;16.60;99.90
15103;DHT22;7652;53.584;9.998;2022-10-16T17:15:32;16.60;99.90
15103;DHT22;7652;53.584;9.998;2022-10-16T17:18:37;16.50;99.90
15103;DHT22;7652;53.584;9.998;2022-10-16T17:21:41;16.40;99.90
15103;DHT22;7652;53.584;9.998;2022-10-16T17:24:44;16.30;99.90
15103;DHT22;7652;53.584;9.998;2022-10-16T17:27:47;16.20;99.90
15103;DHT22;7652;53.584;9.998;2022-10-16T17:30:50;16.20;99.90
15103;DHT22;7652;53.584;9.998;2022-10-16T17:33:54;16.00;99.90
15103;DHT22;7652;53.584;9.998;2022-10-16T17:36:57;16.00;99.90
15103;DHT22;7652;53.584;9.998;2022-10-16T17:40:00;15.90;99.90
15103;DHT22;7652;53.584;9.998;2022-10-16T17:43:04;15.90;99.90
15103;DHT22;7652;53.584;9.998;2022-10-16T17:46:07;15.80;99.90
15103;DHT22;7652;53.584;9.998;2022-10-16T17:49:12;15.70;99.90
15103;DHT22;7652;53.584;9.998;2022-10-16T17:52:15;15.70;99.90
15103;DHT22;7652;53.584;9.998;2022-10-16T17:55:18;15.60;99.90
15103;DHT22;7652;53.584;9.998;2022-10-16T17:58:27;15.30;99.90
15103;DHT22;7652;53.584;9.998;2022-10-16T18:01:37;15.30;99.90
15103;DHT22;7652;53.584;9.998;2022-10-16T18:04:42;15.30;99.90
15103;DHT22;7652;53.584;9.998;2022-10-16T18:07:45;15.30;99.90
15103;DHT22;7652;53.584;9.998;2022-10-16T18:10:49;15.20;99.90
15103;DHT22;7652;53.584;9.998;2022-10-16T18:13:53;15.20;99.90
15103;DHT22;7652;53.584;9.998;2022-10-16T18:16:57;15.10;99.90
15103;DHT22;7652;53.584;9.998;2022-10-16T18:20:03;15.00;99.90
15103;DHT22;7652;53.584;9.998;2022-10-16T18:23:06;15.00;99.90
15103;DHT22;7652;53.584;9.998;2022-10-16T18:26:10;14.90;99.90
15103;DHT22;7652;53.584;9.998;2022-10-16T18:29:13;14.90;99.90
15103;DHT22;7652;53.584;9.998;2022-10-16T18:32:16;14.90;99.90
15103;DHT22;7652;53.584;9.998;2022-10-16T18:35:21;14.90;99.90
15103;DHT22;7652;53.584;9.998;2022-10-16T18:38:24;14.80;99.90
15103;DHT22;7652;53.584;9.998;2022-10-16T18:41:27;14.80;99.90
15103;DHT22;7652;53.584;9.998;2022-10-16T18:44:30;14.70;99.90
15103;DHT22;7652;53.584;9.998;2022-10-16T18:47:33;14.70;99.90
15103;DHT22;7652;53.584;9.998;2022-10-16T18:50:38;14.70;99.90
15103;DHT22;7652;53.584;9.998;2022-10-16T18:53:42;14.60;99.90
15103;DHT22;7652;53.584;9.998;2022-10-16T18:56:45;14.50;99.90
15103;DHT22;7652;53.584;9.998;2022-10-16T18:59:48;14.50;99.90
15103;DHT22;7652;53.584;9.998;2022-10-16T19:02:51;14.40;99.90
15103;DHT22;7652;53.584;9.998;2022-10-16T19:06:00;14.40;99.90
15103;DHT22;7652;53.584;9.998;2022-10-16T19:09:04;14.40;99.90
15103;DHT22;7652;53.584;9.998;2022-10-16T19:12:07;14.40;99.90
15103;DHT22;7652;53.584;9.998;2022-10-16T19:15:10;14.40;99.90
15103;DHT22;7652;53.584;9.998;2022-10-16T19:18:13;14.40;99.90
15103;DHT22;7652;53.584;9.998;2022-10-16T19:21:18;14.30;99.90
15103;DHT22;7652;53.584;9.998;2022-10-16T19:24:21;14.30;99.90
15103;DHT22;7652;53.584;9.998;2022-10-16T19:27:25;14.30;99.90
15103;DHT22;7652;53.584;9.998;2022-10-16T19:30:28;14.20;99.90
15103;DHT22;7652;53.584;9.998;2022-10-16T19:33:31;14.20;99.90
15103;DHT22;7652;53.584;9.998;2022-10-16T19:36:37;14.00;99.90
15103;DHT22;7652;53.584;9.998;2022-10-16T19:39:40;13.90;99.90
15103;DHT22;7652;53.584;9.998;2022-10-16T19:42:43;13.70;99.90
15103;DHT22;7652;53.584;9.998;2022-10-16T19:45:46;13.70;99.90
15103;DHT22;7652;53.584;9.998;2022-10-16T19:48:53;13.80;99.90
15103;DHT22;7652;53.584;9.998;2022-10-16T19:51:58;13.80;99.90
15103;DHT22;7652;53.584;9.998;2022-10-16T19:55:01;13.80;99.90
15103;DHT22;7652;53.584;9.998;2022-10-16T19:58:04;13.80;99.90